Wetterdaten: Woche 13.02.12 - 19.02.12 (KW7)
Datum Zeit Temp. A. Feuchte A. Luftdruck Regen Wind Richtung Taupunkt Windchill Windben
13.02.2012 00:00 -7,6 C 59 % 1026,3 hPa 0,0 l/m 2,7 km/h W-NW -14,1 C -7,6 C 10,5 km/h
13.02.2012 01:00 -7,3 C 56 % 1025,7 hPa 0,0 l/m 4,0 km/h NW -14,7 C -7,3 C 12,9 km/h
13.02.2012 02:00 -7,4 C 55 % 1025,3 hPa 0,0 l/m 1,9 km/h W-NW -14,9 C -7,4 C 8,9 km/h
13.02.2012 03:00 -7,8 C 57 % 1024,9 hPa 0,0 l/m 1,6 km/h W -14,8 C -7,8 C 9,2 km/h
13.02.2012 04:00 -8,0 C 57 % 1024,6 hPa 0,0 l/m 4,1 km/h W-NW -14,9 C -8,0 C 14,5 km/h
13.02.2012 05:00 -7,6 C 56 % 1024,0 hPa 0,0 l/m 8,8 km/h W-NW -14,8 C -10,5 C 20,5 km/h
13.02.2012 06:00 -7,5 C 55 % 1023,5 hPa 0,0 l/m 7,1 km/h W-NW -14,9 C -8,8 C 20,5 km/h
13.02.2012 07:00 -7,6 C 56 % 1023,4 hPa 0,0 l/m 6,8 km/h W-NW -14,8 C -8,8 C 18,1 km/h
13.02.2012 08:00 -7,0 C 56 % 1023,4 hPa 0,0 l/m 12,0 km/h W -14,3 C -13,0 C 26,1 km/h
13.02.2012 09:00 -5,9 C 53 % 1023,2 hPa 0,0 l/m 14,3 km/h W -13,8 C -13,6 C 28,5 km/h
13.02.2012 10:00 -4,8 C 50 % 1022,7 hPa 0,0 l/m 13,9 km/h W-NW -13,6 C -11,9 C 28,6 km/h
13.02.2012 11:00 -3,0 C 46 % 1022,3 hPa 0,0 l/m 12,0 km/h W-NW -12,9 C -8,4 C 28,6 km/h
13.02.2012 12:00 -2,5 C 46 % 1021,1 hPa 0,0 l/m 17,3 km/h SW -12,6 C -11,4 C 37,4 km/h
13.02.2012 13:00 -2,3 C 48 % 1020,1 hPa 0,0 l/m 18,3 km/h W -11,9 C -11,6 C 39,4 km/h
13.02.2012 14:00 -3,6 C 57 % 1019,4 hPa 0,0 l/m 18,5 km/h SW -10,8 C -13,4 C 39,8 km/h
13.02.2012 15:00 -4,5 C 66 % 1019,5 hPa 0,0 l/m 18,4 km/h W-NW -9,9 C -14,5 C 37,8 km/h
13.02.2012 16:00 -4,7 C 68 % 1019,0 hPa 0,0 l/m 15,1 km/h W -9,8 C -12,5 C 31,4 km/h
13.02.2012 17:00 -4,8 C 66 % 1018,7 hPa 0,0 l/m 19,3 km/h W-NW -10,1 C -15,4 C 37,4 km/h
13.02.2012 18:00 -4,7 C 67 % 1018,9 hPa 0,0 l/m 17,4 km/h W-NW -9,9 C -14,2 C 33,4 km/h
13.02.2012 19:00 -4,6 C 66 % 1019,0 hPa 0,0 l/m 13,4 km/h W -10,0 C -11,0 C 27,3 km/h
13.02.2012 20:00 -4,6 C 66 % 1019,0 hPa 0,0 l/m 10,3 km/h W -10,0 C -8,8 C 23,3 km/h
13.02.2012 21:00 -4,4 C 66 % 1018,8 hPa 0,0 l/m 8,9 km/h W-NW -9,8 C -7,3 C 21,7 km/h
13.02.2012 22:00 -4,5 C 67 % 1018,5 hPa 0,0 l/m 8,3 km/h W-NW -9,7 C -6,7 C 19,7 km/h
13.02.2012 23:00 -4,4 C 67 % 1018,0 hPa 0,0 l/m 10,6 km/h W-NW -9,6 C -8,7 C 20,5 km/h
14.02.2012 00:00 -4,5 C 68 % 1017,5 hPa 0,0 l/m 7,5 km/h W-NW -9,5 C -5,7 C 18,1 km/h
14.02.2012 01:00 -4,7 C 69 % 1017,0 hPa 0,0 l/m 3,9 km/h NW -9,5 C -4,7 C 9,3 km/h
14.02.2012 02:00 -4,8 C 70 % 1016,9 hPa 0,0 l/m 2,4 km/h NW -9,4 C -4,8 C 8,8 km/h
14.02.2012 03:00 -5,1 C 72 % 1016,8 hPa 0,0 l/m 3,1 km/h NW -9,4 C -5,1 C 8,4 km/h
14.02.2012 04:00 -4,5 C 72 % 1016,6 hPa 0,0 l/m 2,7 km/h W-NW -8,9 C -4,5 C 7,6 km/h
14.02.2012 05:00 -4,3 C 72 % 1016,7 hPa 0,0 l/m 1,6 km/h NW -8,7 C -4,3 C 5,2 km/h
14.02.2012 06:00 -4,3 C 72 % 1016,6 hPa 0,0 l/m 3,8 km/h W -8,6 C -4,3 C 11,3 km/h
14.02.2012 07:00 -4,2 C 72 % 1016,8 hPa 0,0 l/m 4,6 km/h NW -8,4 C -4,2 C 12,5 km/h
14.02.2012 08:00 -4,0 C 72 % 1017,0 hPa 0,0 l/m 4,8 km/h W-NW -8,3 C -4,4 C 11,6 km/h
14.02.2012 09:00 -3,1 C 71 % 1017,0 hPa 0,0 l/m 7,8 km/h W-NW -7,6 C -4,7 C 19,3 km/h
14.02.2012 10:00 -2,3 C 68 % 1016,8 hPa 0,0 l/m 8,3 km/h W-NW -7,5 C -4,3 C 17,7 km/h
14.02.2012 11:00 -1,6 C 65 % 1016,8 hPa 0,0 l/m 11,1 km/h W -7,4 C -6,1 C 22,5 km/h
14.02.2012 12:00 -1,2 C 61 % 1016,3 hPa 0,0 l/m 10,0 km/h W-NW -7,7 C -4,7 C 23,3 km/h
14.02.2012 13:00 -1,2 C 60 % 1016,0 hPa 0,0 l/m 8,2 km/h W-NW -8,0 C -3,4 C 20,9 km/h
14.02.2012 14:00 -0,7 C 58 % 1015,3 hPa 0,0 l/m 11,4 km/h W -8,0 C -5,4 C 24,1 km/h
14.02.2012 15:00 -1,1 C 61 % 1015,1 hPa 0,0 l/m 8,8 km/h W-NW -7,8 C -3,6 C 20,9 km/h
14.02.2012 16:00 -1,5 C 62 % 1015,0 hPa 0,0 l/m 8,3 km/h W -7,8 C -3,4 C 17,7 km/h
14.02.2012 17:00 -2,3 C 70 % 1014,9 hPa 0,0 l/m 4,1 km/h W-NW -7,1 C -2,5 C 11,3 km/h
14.02.2012 18:00 -3,3 C 74 % 1014,8 hPa 0,0 l/m 1,0 km/h NW -7,3 C -3,3 C 6,0 km/h
14.02.2012 19:00 -3,2 C 76 % 1014,3 hPa 0,0 l/m 1,7 km/h W -6,8 C -3,2 C 7,2 km/h
14.02.2012 20:00 -1,6 C 74 % 1013,6 hPa 0,0 l/m 6,7 km/h NW -5,7 C -2,5 C 16,5 km/h
14.02.2012 21:00 -1,8 C 77 % 1013,1 hPa 0,0 l/m 1,5 km/h S-SW -5,4 C -1,8 C 7,6 km/h
14.02.2012 22:00 -0,4 C 76 % 1012,3 hPa 0,0 l/m 6,8 km/h W -4,1 C -2,1 C 19,3 km/h
14.02.2012 23:00 -0,1 C 76 % 1011,0 hPa 0,0 l/m 7,4 km/h W -3,9 C -1,5 C 20,9 km/h
15.02.2012 00:00 0,4 C 74 % 1009,9 hPa 0,0 l/m 5,8 km/h W-NW -3,7 C 0,2 C 22,9 km/h
15.02.2012 01:00 1,0 C 73 % 1008,5 hPa 0,0 l/m 5,6 km/h W -3,3 C 0,7 C 20,5 km/h
15.02.2012 02:00 1,3 C 73 % 1007,0 hPa 0,0 l/m 7,2 km/h W-SW -2,9 C 0,3 C 22,9 km/h
15.02.2012 03:00 1,7 C 72 % 1005,1 hPa 0,0 l/m 12,1 km/h W -2,8 C -3,1 C 33,0 km/h
15.02.2012 04:00 2,0 C 70 % 1004,3 hPa 0,0 l/m 11,7 km/h W-SW -2,8 C -2,3 C 30,2 km/h
15.02.2012 05:00 2,1 C 71 % 1002,8 hPa 0,0 l/m 11,2 km/h W-SW -2,7 C -2,0 C 36,2 km/h
15.02.2012 06:00 2,7 C 68 % 1000,1 hPa 0,0 l/m 15,8 km/h W-SW -2,6 C -4,1 C 42,7 km/h
15.02.2012 07:00 3,2 C 66 % 998,0 hPa 0,0 l/m 18,5 km/h N -2,7 C -4,9 C 50,7 km/h
15.02.2012 08:00 3,5 C 66 % 996,5 hPa 0,0 l/m 21,7 km/h N -2,2 C -5,8 C 53,1 km/h
15.02.2012 09:00 3,5 C 68 % 995,7 hPa 0,0 l/m 21,2 km/h N -1,8 C -5,6 C 50,7 km/h
15.02.2012 10:00 3,4 C 72 % 995,5 hPa 0,0 l/m 16,0 km/h N -1,2 C -3,4 C 45,5 km/h
15.02.2012 11:00 3,8 C 70 % 995,6 hPa 0,0 l/m 17,4 km/h N -1,1 C -3,5 C 41,8 km/h
15.02.2012 12:00 2,3 C 80 % 996,4 hPa 0,5 l/m 18,2 km/h W-NW -0,8 C -5,8 C 46,7 km/h
15.02.2012 13:00 2,1 C 81 % 996,6 hPa 0,8 l/m 16,2 km/h W-NW -0,8 C -5,0 C 31,9 km/h
15.02.2012 14:00 3,7 C 68 % 996,3 hPa 0,0 l/m 20,2 km/h W -1,7 C -4,9 C 42,9 km/h
15.02.2012 15:00 4,3 C 65 % 996,7 hPa 0,3 l/m 19,9 km/h W -1,8 C -4,1 C 40,7 km/h
15.02.2012 16:00 3,4 C 69 % 997,5 hPa 0,0 l/m 20,2 km/h W -1,9 C -5,3 C 43,8 km/h
15.02.2012 17:00 3,3 C 67 % 998,2 hPa 0,0 l/m 19,3 km/h W-NW -2,3 C -5,1 C 40,2 km/h
15.02.2012 18:00 3,3 C 65 % 999,1 hPa 0,0 l/m 16,3 km/h N -2,8 C -3,7 C 41,8 km/h
15.02.2012 19:00 2,9 C 66 % 999,9 hPa 0,0 l/m 18,2 km/h NW -2,8 C -5,0 C 37,4 km/h
15.02.2012 20:00 1,3 C 81 % 1001,0 hPa 0,0 l/m 16,2 km/h W-SW -1,7 C -6,1 C 35,4 km/h
15.02.2012 21:00 1,5 C 79 % 1001,8 hPa 0,0 l/m 21,3 km/h W-NW -1,7 C -8,2 C 44,7 km/h
15.02.2012 22:00 1,4 C 80 % 1003,0 hPa 0,0 l/m 17,8 km/h W -1,8 C -6,8 C 39,0 km/h
15.02.2012 23:00 1,2 C 71 % 1003,7 hPa 0,0 l/m 19,0 km/h W-NW -3,4 C -7,6 C 41,0 km/h
16.02.2012 00:00 1,5 C 66 % 1004,5 hPa 0,0 l/m 21,3 km/h N -4,1 C -8,2 C 47,1 km/h
16.02.2012 01:00 1,5 C 65 % 1005,5 hPa 0,0 l/m 22,7 km/h N -4,4 C -8,9 C 42,6 km/h
16.02.2012 02:00 1,3 C 64 % 1006,8 hPa 0,0 l/m 21,0 km/h N -4,8 C -8,3 C 40,6 km/h
16.02.2012 03:00 1,3 C 61 % 1007,7 hPa 0,0 l/m 20,9 km/h N -5,3 C -8,3 C 41,0 km/h
16.02.2012 04:00 1,3 C 60 % 1008,8 hPa 0,0 l/m 20,0 km/h N -5,5 C -7,9 C 39,4 km/h
16.02.2012 05:00 1,3 C 62 % 1010,1 hPa 0,0 l/m 23,4 km/h N -5,3 C -9,3 C 45,5 km/h
16.02.2012 06:00 1,0 C 65 % 1011,1 hPa 0,0 l/m 19,6 km/h N -4,9 C -8,1 C 39,4 km/h
16.02.2012 07:00 0,8 C 64 % 1012,5 hPa 0,0 l/m 20,3 km/h N -5,3 C -8,7 C 45,5 km/h
16.02.2012 08:00 0,8 C 65 % 1013,8 hPa 0,0 l/m 21,0 km/h N -5,1 C -9,0 C 44,6 km/h
16.02.2012 09:00 1,4 C 64 % 1015,0 hPa 0,0 l/m 20,2 km/h N -4,7 C -7,9 C 38,2 km/h
16.02.2012 10:00 1,5 C 63 % 1016,0 hPa 0,0 l/m 21,1 km/h N -4,8 C -8,1 C 40,6 km/h
16.02.2012 11:00 1,3 C 66 % 1017,3 hPa 0,0 l/m 23,1 km/h N -4,4 C -9,3 C 46,3 km/h
16.02.2012 12:00 1,6 C 67 % 1018,1 hPa 0,0 l/m 20,5 km/h N -3,8 C -7,7 C 39,0 km/h
16.02.2012 13:00 1,9 C 66 % 1018,6 hPa 0,0 l/m 19,0 km/h N -3,7 C -6,7 C 37,4 km/h
16.02.2012 14:00 1,7 C 65 % 1019,1 hPa 0,0 l/m 14,9 km/h N -4,1 C -4,6 C 34,6 km/h
16.02.2012 15:00 1,7 C 65 % 1019,5 hPa 0,0 l/m 13,9 km/h N -4,2 C -4,2 C 30,6 km/h
16.02.2012 16:00 1,8 C 57 % 1019,8 hPa 0,0 l/m 14,8 km/h N -5,8 C -4,7 C 30,6 km/h
16.02.2012 17:00 1,4 C 57 % 1020,2 hPa 0,0 l/m 12,6 km/h N -6,1 C -3,7 C 28,6 km/h
16.02.2012 18:00 1,4 C 57 % 1020,8 hPa 0,0 l/m 12,4 km/h N -6,2 C -3,6 C 27,0 km/h
16.02.2012 19:00 0,3 C 61 % 1021,5 hPa 0,0 l/m 5,5 km/h N -6,4 C 0,2 C 15,3 km/h
16.02.2012 20:00 -0,5 C 63 % 1021,7 hPa 0,0 l/m 3,9 km/h N -6,6 C -0,5 C 11,7 km/h
16.02.2012 21:00 -0,3 C 66 % 1021,9 hPa 0,0 l/m 5,1 km/h N -5,8 C -0,6 C 13,7 km/h
16.02.2012 22:00 -0,2 C 66 % 1022,3 hPa 0,0 l/m 5,3 km/h N -5,8 C -0,2 C 12,5 km/h
16.02.2012 23:00 0,1 C 66 % 1021,7 hPa 0,0 l/m 5,1 km/h N -5,4 C 0,1 C 16,5 km/h
17.02.2012 00:00 1,2 C 65 % 1021,3 hPa 0,0 l/m 11,3 km/h N -4,7 C -3,1 C 27,8 km/h
17.02.2012 01:00 1,8 C 64 % 1021,0 hPa 0,0 l/m 11,5 km/h N -4,3 C -2,3 C 26,1 km/h
17.02.2012 02:00 2,1 C 66 % 1020,1 hPa 0,0 l/m 10,7 km/h N -3,5 C -1,6 C 25,3 km/h
17.02.2012 03:00 2,3 C 70 % 1019,4 hPa 0,0 l/m 15,8 km/h N -2,6 C -4,6 C 36,2 km/h
17.02.2012 04:00 1,6 C 79 % 1018,6 hPa 0,0 l/m 15,6 km/h N -1,6 C -5,2 C 36,2 km/h
17.02.2012 05:00 1,6 C 82 % 1017,8 hPa 0,3 l/m 16,7 km/h W-NW -1,2 C -6,0 C 39,0 km/h
17.02.2012 06:00 1,7 C 83 % 1017,6 hPa 0,8 l/m 14,2 km/h N -1,0 C -4,5 C 35,4 km/h
17.02.2012 07:00 1,9 C 83 % 1017,5 hPa 0,5 l/m 15,7 km/h W -0,6 C -5,0 C 35,8 km/h
17.02.2012 08:00 2,2 C 82 % 1017,2 hPa 1,0 l/m 18,0 km/h N -0,5 C -5,8 C 43,4 km/h
17.02.2012 09:00 3,1 C 78 % 1016,7 hPa 0,3 l/m 22,2 km/h W -0,3 C -6,5 C 47,9 km/h
17.02.2012 10:00 4,0 C 75 % 1016,5 hPa 0,3 l/m 23,4 km/h W-SW -0,1 C -5,8 C 45,9 km/h
17.02.2012 11:00 5,1 C 71 % 1016,6 hPa 0,0 l/m 24,1 km/h W-NW 0,3 C -4,5 C 47,9 km/h
17.02.2012 12:00 5,8 C 71 % 1016,8 hPa 0,0 l/m 19,6 km/h W 0,8 C -2,0 C 43,0 km/h
17.02.2012 13:00 5,6 C 72 % 1016,8 hPa 0,0 l/m 21,6 km/h W 1,0 C -3,0 C 46,3 km/h
17.02.2012 14:00 5,0 C 75 % 1016,6 hPa 0,3 l/m 20,8 km/h W-NW 0,9 C -3,4 C 45,5 km/h
17.02.2012 15:00 5,2 C 74 % 1016,7 hPa 0,0 l/m 20,6 km/h W 1,0 C -3,1 C 44,7 km/h
17.02.2012 16:00 5,0 C 73 % 1016,6 hPa 0,0 l/m 19,1 km/h W 0,5 C -2,7 C 43,0 km/h
17.02.2012 17:00 5,0 C 72 % 1017,2 hPa 0,0 l/m 19,6 km/h N 0,4 C -3,0 C 41,0 km/h
17.02.2012 18:00 4,5 C 75 % 1018,1 hPa 0,0 l/m 18,9 km/h N 0,5 C -3,3 C 38,6 km/h
17.02.2012 19:00 4,6 C 75 % 1018,4 hPa 0,0 l/m 18,7 km/h N 0,5 C -3,1 C 39,8 km/h
17.02.2012 20:00 4,8 C 75 % 1018,6 hPa 0,0 l/m 17,9 km/h W-NW 0,7 C -2,5 C 41,8 km/h
17.02.2012 21:00 4,9 C 74 % 1018,6 hPa 0,0 l/m 19,4 km/h W 0,6 C -3,0 C 40,3 km/h
17.02.2012 22:00 5,1 C 72 % 1018,8 hPa 0,0 l/m 16,8 km/h N 0,5 C -1,7 C 36,2 km/h
17.02.2012 23:00 5,1 C 72 % 1019,0 hPa 0,0 l/m 17,0 km/h N 0,4 C -1,8 C 35,4 km/h
18.02.2012 00:00 4,9 C 73 % 1019,0 hPa 0,0 l/m 13,9 km/h N 0,5 C -0,5 C 31,8 km/h
18.02.2012 01:00 4,5 C 75 % 1019,1 hPa 0,0 l/m 14,8 km/h N 0,4 C -1,4 C 30,6 km/h
18.02.2012 02:00 4,4 C 76 % 1019,3 hPa 0,0 l/m 12,8 km/h N 0,4 C -0,4 C 29,4 km/h
18.02.2012 03:00 4,3 C 76 % 1019,4 hPa 0,0 l/m 10,6 km/h N 0,5 C 0,9 C 23,7 km/h
18.02.2012 04:00 4,5 C 74 % 1019,6 hPa 0,0 l/m 12,0 km/h N 0,2 C 0,3 C 28,6 km/h
18.02.2012 05:00 4,5 C 73 % 1020,0 hPa 0,0 l/m 8,2 km/h N 0,0 C 2,9 C 20,5 km/h
18.02.2012 06:00 4,3 C 75 % 1020,0 hPa 0,0 l/m 7,1 km/h N 0,4 C 3,5 C 19,3 km/h
18.02.2012 07:00 4,3 C 77 % 1020,3 hPa 0,0 l/m 8,1 km/h N 0,6 C 2,8 C 17,3 km/h
18.02.2012 08:00 4,6 C 77 % 1020,5 hPa 0,0 l/m 8,3 km/h N 0,9 C 3,0 C 19,3 km/h
18.02.2012 09:00 5,0 C 77 % 1020,6 hPa 0,0 l/m 8,6 km/h N 1,3 C 3,2 C 21,7 km/h
18.02.2012 10:00 5,4 C 75 % 1020,8 hPa 0,0 l/m 6,7 km/h N 1,3 C 4,9 C 19,3 km/h
18.02.2012 11:00 6,4 C 71 % 1020,8 hPa 0,0 l/m 5,8 km/h N 1,5 C 6,4 C 15,7 km/h
18.02.2012 12:00 6,8 C 66 % 1020,2 hPa 0,0 l/m 6,5 km/h N 0,9 C 6,0 C 15,3 km/h
18.02.2012 13:00 7,3 C 64 % 1019,7 hPa 0,0 l/m 5,0 km/h N 0,9 C 7,2 C 16,1 km/h
18.02.2012 14:00 7,5 C 62 % 1019,3 hPa 0,0 l/m 7,8 km/h W-NW 0,8 C 6,4 C 18,1 km/h
18.02.2012 15:00 7,3 C 60 % 1019,1 hPa 0,0 l/m 4,0 km/h S-SW 0,1 C 7,3 C 10,9 km/h
18.02.2012 16:00 7,2 C 61 % 1018,8 hPa 0,0 l/m 0,3 km/h N 0,2 C 7,2 C 4,0 km/h
18.02.2012 17:00 5,7 C 67 % 1018,5 hPa 0,0 l/m 0,0 km/h N 0,1 C 5,7 C 0,4 km/h
18.02.2012 18:00 4,3 C 72 % 1018,4 hPa 0,0 l/m 0,0 km/h N -0,3 C 4,3 C 0,0 km/h
18.02.2012 19:00 3,6 C 75 % 1018,2 hPa 0,0 l/m 0,0 km/h N -0,4 C 3,6 C 0,0 km/h
18.02.2012 20:00 3,4 C 76 % 1017,9 hPa 0,0 l/m 0,0 km/h N -0,5 C 3,4 C 0,0 km/h
18.02.2012 21:00 2,6 C 77 % 1017,6 hPa 0,0 l/m 0,0 km/h N -1,0 C 2,6 C 0,4 km/h
18.02.2012 22:00 1,0 C 80 % 1017,5 hPa 0,0 l/m 0,1 km/h N -2,2 C 1,0 C 0,8 km/h
18.02.2012 23:00 -0,1 C 83 % 1017,3 hPa 0,0 l/m 0,0 km/h N -2,7 C -0,1 C 0,8 km/h
19.02.2012 00:00 -0,6 C 84 % 1016,8 hPa 0,0 l/m 0,0 km/h N -3,0 C -0,6 C 0,0 km/h
19.02.2012 01:00 0,2 C 84 % 1016,2 hPa 0,0 l/m 0,5 km/h N -2,2 C 0,2 C 3,6 km/h
19.02.2012 02:00 0,7 C 84 % 1015,7 hPa 0,0 l/m 0,2 km/h N -1,7 C 0,7 C 2,4 km/h
19.02.2012 03:00 0,6 C 84 % 1015,0 hPa 0,0 l/m 0,0 km/h N -1,8 C 0,6 C 0,0 km/h
19.02.2012 04:00 -0,2 C 85 % 1014,6 hPa 0,0 l/m 0,0 km/h N -2,5 C -0,2 C 0,0 km/h
19.02.2012 05:00 -1,5 C 85 % 1014,6 hPa 0,0 l/m 0,0 km/h N -3,6 C -1,5 C 0,0 km/h
19.02.2012 06:00 -2,3 C 85 % 1014,5 hPa 0,0 l/m 0,0 km/h N -4,4 C -2,3 C 0,0 km/h
19.02.2012 07:00 -2,5 C 85 % 1014,6 hPa 0,0 l/m 0,0 km/h N -4,7 C -2,5 C 0,0 km/h
19.02.2012 08:00 -0,1 C 84 % 1014,7 hPa 0,0 l/m 0,1 km/h N -2,6 C -0,1 C 1,2 km/h
19.02.2012 09:00 0,7 C 85 % 1014,7 hPa 0,0 l/m 0,1 km/h N -1,5 C 0,7 C 1,6 km/h
19.02.2012 10:00 1,7 C 82 % 1014,8 hPa 0,0 l/m 0,4 km/h N -1,0 C 1,7 C 4,0 km/h
19.02.2012 11:00 2,4 C 80 % 1015,3 hPa 0,0 l/m 1,6 km/h N -0,6 C 2,4 C 5,6 km/h
19.02.2012 12:00 2,8 C 82 % 1015,7 hPa 0,3 l/m 0,0 km/h N -0,0 C 2,8 C 1,2 km/h
19.02.2012 13:00 3,2 C 82 % 1015,7 hPa 0,0 l/m 1,3 km/h N 0,5 C 3,2 C 5,2 km/h
19.02.2012 14:00 3,8 C 83 % 1015,8 hPa 0,0 l/m 2,1 km/h N 1,1 C 3,8 C 7,6 km/h
19.02.2012 15:00 5,5 C 81 % 1016,4 hPa 0,0 l/m 4,2 km/h N 2,5 C 5,3 C 15,7 km/h
19.02.2012 16:00 6,5 C 77 % 1016,9 hPa 0,3 l/m 7,7 km/h N 2,7 C 5,4 C 23,3 km/h
19.02.2012 17:00 5,9 C 78 % 1017,8 hPa 0,0 l/m 7,9 km/h N 2,3 C 4,7 C 21,3 km/h
19.02.2012 18:00 5,4 C 79 % 1019,3 hPa 0,0 l/m 8,1 km/h N 2,0 C 3,9 C 21,7 km/h
19.02.2012 19:00 4,3 C 83 % 1021,3 hPa 1,3 l/m 11,4 km/h N 1,6 C 0,4 C 26,2 km/h
19.02.2012 20:00 3,0 C 84 % 1022,7 hPa 0,8 l/m 9,8 km/h N 0,6 C 0,1 C 22,5 km/h
19.02.2012 21:00 2,5 C 84 % 1023,6 hPa 0,5 l/m 9,5 km/h N 0,1 C -0,3 C 23,7 km/h
19.02.2012 22:00 2,8 C 82 % 1024,6 hPa 0,0 l/m 6,9 km/h N 0,1 C 2,2 C 19,7 km/h
19.02.2012 23:00 3,2 C 80 % 1025,3 hPa 0,0 l/m 8,5 km/h N 0,0 C 1,3 C 20,1 km/h
Min-Datum _ 13.02.12 13.02.12 15.02.12 - 14.02.12 - 13.02.12 13.02.12 18.02.12
_ Min-Zeit 03:45 12:00 10:45 - 19:15 - 04:15 17:15 17:15
Minimum _ -8,1 C 43 % 995,3 hPa - 0,0 km/h - -15,1 C -16,3 C 0,0 km/h
Max-Datum _ 18.02.12 19.02.12 13.02.12 19.02.12 17.02.12 - 19.02.12 18.02.12 15.02.12
_ Max-Zeit 13:45 03:45 00:00 19:45 10:45 - 15:30 13:45 08:15
Maximum _ 7,8 C 85 % 1026,6 hPa 1,3 l/m 26,0 km/h
W-SW
- 3,1 C 7,7 C 61,2 km/h
N
Durchschnitt _ 0,8 C 70 % 1015,4 hPa #8,1 l/m 10,9 km/h N -4,0 C -3,3 C 25,0 km/h